Time;durP1;ratioP1;P1;durP2;ratioP2;P2;SDS_P1;SDS_P2;PMS_P1;PMS_P2;Temp;Humidity;BMP_temperature;BMP_pressure;BME280_temperature;BME280_humidity;BME280_pressure;Samples;Min_cycle;Max_cycle;Signal;HPM_P1;HPM_P2
2023/03/15 00:00:24;;;;;;;37.17;18.20;;;6.60;90.80;;;;;;4161387;28;20029;-67
2023/03/15 00:02:25;;;;;;;38.57;17.30;;;6.60;91.00;;;;;;4159884;28;20084;-62
2023/03/15 00:04:27;;;;;;;42.93;18.47;;;6.60;91.30;;;;;;4161190;28;20493;-63
2023/03/15 00:06:28;;;;;;;39.37;17.20;;;6.60;91.50;;;;;;4159017;28;20030;-64
2023/03/15 00:08:32;;;;;;;39.73;18.17;;;6.60;91.70;;;;;;4160571;28;20125;-75
2023/03/15 00:10:33;;;;;;;41.10;17.90;;;6.50;92.20;;;;;;4161036;28;20080;-63
2023/03/15 00:12:34;;;;;;;40.07;17.83;;;6.50;92.40;;;;;;4160336;28;20045;-63
2023/03/15 00:14:36;;;;;;;43.20;19.03;;;6.40;92.50;;;;;;4161123;28;20049;-63
2023/03/15 00:16:37;;;;;;;39.30;18.57;;;6.40;92.60;;;;;;4163107;28;20645;-63
2023/03/15 00:18:38;;;;;;;36.93;18.37;;;6.40;92.90;;;;;;4164161;28;20485;-63
2023/03/15 00:20:39;;;;;;;41.13;18.37;;;6.50;92.90;;;;;;4163337;28;20033;-63
2023/03/15 00:22:41;;;;;;;41.90;18.07;;;6.50;92.70;;;;;;4163530;28;20037;-64
2023/03/15 00:24:42;;;;;;;32.70;17.10;;;6.50;92.70;;;;;;4162356;28;20033;-64
2023/03/15 00:26:43;;;;;;;32.13;17.30;;;6.50;92.80;;;;;;4163958;28;20163;-63
2023/03/15 00:28:44;;;;;;;38.67;18.67;;;6.60;92.70;;;;;;4162769;28;20088;-65
2023/03/15 00:30:46;;;;;;;37.67;19.30;;;6.60;92.90;;;;;;4164403;28;20634;-63
2023/03/15 00:32:47;;;;;;;39.57;19.70;;;6.60;93.00;;;;;;4163088;28;20041;-74
2023/03/15 00:34:48;;;;;;;43.77;19.90;;;6.60;93.10;;;;;;4164234;28;20432;-72
2023/03/15 00:36:49;;;;;;;38.10;18.93;;;6.50;94.10;;;;;;4163218;28;20083;-73
2023/03/15 00:38:52;;;;;;;43.13;19.07;;;6.30;94.30;;;;;;4163710;28;21001;-73
2023/03/15 00:40:54;;;;;;;34.77;18.03;;;6.30;94.60;;;;;;4163665;28;20087;-63
2023/03/15 00:42:56;;;;;;;48.67;20.07;;;6.20;94.70;;;;;;4162948;28;20567;-64
2023/03/15 00:44:57;;;;;;;44.47;20.70;;;6.20;95.10;;;;;;4163221;28;20538;-64
2023/03/15 00:46:59;;;;;;;43.87;21.03;;;6.20;95.00;;;;;;4162774;28;20053;-71
2023/03/15 00:49:00;;;;;;;40.67;19.47;;;6.20;94.80;;;;;;4163668;28;20462;-64
2023/03/15 00:51:15;;;;;;;44.23;19.50;;;6.20;94.80;;;;;;4162410;28;20038;-63
2023/03/15 00:53:16;;;;;;;42.83;16.87;;;6.10;95.00;;;;;;4163412;28;20512;-64
2023/03/15 00:55:18;;;;;;;36.70;15.20;;;6.10;95.50;;;;;;4162714;28;20049;-63
2023/03/15 00:57:20;;;;;;;37.90;17.93;;;6.00;95.40;;;;;;4162234;28;20053;-63
2023/03/15 00:59:21;;;;;;;29.67;14.97;;;5.90;95.40;;;;;;4162581;28;20107;-64
2023/03/15 01:01:26;;;;;;;22.23;11.47;;;5.80;95.60;;;;;;4162948;28;20060;-63
2023/03/15 01:03:27;;;;;;;21.67;11.60;;;5.70;95.70;;;;;;4162694;28;20045;-63
2023/03/15 01:05:28;;;;;;;25.30;11.63;;;5.70;95.80;;;;;;4163662;28;20029;-63
2023/03/15 01:07:32;;;;;;;33.53;13.10;;;5.60;96.00;;;;;;4162387;28;20033;-71
2023/03/15 01:09:33;;;;;;;27.93;12.30;;;5.50;96.20;;;;;;4163143;28;20049;-65
2023/03/15 01:11:35;;;;;;;30.10;12.40;;;5.50;96.20;;;;;;4162530;28;20076;-63
2023/03/15 01:13:36;;;;;;;31.27;12.20;;;5.50;96.30;;;;;;4163114;28;20095;-71
2023/03/15 01:15:37;;;;;;;18.47;10.53;;;5.50;96.40;;;;;;4162628;28;20033;-64
2023/03/15 01:17:39;;;;;;;20.60;10.57;;;5.50;96.10;;;;;;4163027;28;20432;-64
2023/03/15 01:19:40;;;;;;;20.80;10.03;;;5.50;96.00;;;;;;4162551;28;20099;-64
2023/03/15 01:21:42;;;;;;;20.70;10.93;;;5.50;95.90;;;;;;4162748;28;20041;-64
2023/03/15 01:23:44;;;;;;;27.13;12.77;;;5.60;95.80;;;;;;4162767;28;20075;-71
2023/03/15 01:25:45;;;;;;;25.13;11.50;;;5.60;95.90;;;;;;4160535;28;20091;-76
2023/03/15 01:27:46;;;;;;;22.73;11.47;;;5.60;95.90;;;;;;4162669;28;20394;-67
2023/03/15 01:29:47;;;;;;;24.97;10.03;;;5.60;96.00;;;;;;4161903;28;20045;-62
2023/03/15 01:31:48;;;;;;;19.37;11.33;;;5.60;95.90;;;;;;4163404;28;20041;-62
2023/03/15 01:33:50;;;;;;;39.27;15.77;;;5.60;96.00;;;;;;4161048;28;20120;-63
2023/03/15 01:36:02;;;;;;;31.70;15.70;;;5.60;96.30;;;;;;4162941;28;20038;-64
2023/03/15 01:38:03;;;;;;;33.63;16.07;;;5.60;96.70;;;;;;4161768;28;20405;-67
2023/03/15 01:40:05;;;;;;;36.00;16.80;;;5.60;97.00;;;;;;4162935;28;20283;-70
2023/03/15 01:42:07;;;;;;;39.20;17.03;;;5.60;97.60;;;;;;4161690;28;20084;-67
2023/03/15 01:44:15;;;;;;;41.13;16.40;;;5.50;97.70;;;;;;4163159;28;20079;-62
2023/03/15 01:46:24;;;;;;;39.47;17.20;;;5.50;98.00;;;;;;4161977;28;20271;-68
2023/03/15 01:48:43;;;;;;;33.80;17.60;;;5.40;98.20;;;;;;4163052;28;20087;-70
2023/03/15 01:50:44;;;;;;;42.97;17.23;;;5.40;98.30;;;;;;4161426;28;20084;-64
2023/03/15 01:52:46;;;;;;;98.63;38.97;;;5.40;98.60;;;;;;4162892;28;20076;-65
2023/03/15 01:54:57;;;;;;;128.67;52.13;;;5.40;98.40;;;;;;4161650;28;21317;-63
2023/03/15 01:57:08;;;;;;;81.00;36.57;;;5.40;98.90;;;;;;4162660;28;20287;-65
2023/03/15 01:59:20;;;;;;;129.80;55.07;;;5.40;98.80;;;;;;4161609;28;20050;-63
2023/03/15 02:01:22;;;;;;;125.17;56.07;;;5.30;99.00;;;;;;4162434;28;20544;-63
2023/03/15 02:03:33;;;;;;;90.30;38.67;;;5.30;99.20;;;;;;4161537;28;20092;-63
2023/03/15 02:05:44;;;;;;;72.00;31.67;;;5.30;99.30;;;;;;4162517;28;20372;-63
2023/03/15 02:07:48;;;;;;;83.40;34.23;;;5.30;99.40;;;;;;4161631;28;20029;-63
2023/03/15 02:10:13;;;;;;;72.23;32.20;;;5.20;99.50;;;;;;4162313;28;20297;-63
2023/03/15 02:12:16;;;;;;;61.73;27.57;;;5.30;99.60;;;;;;4161340;28;20037;-63
2023/03/15 02:14:17;;;;;;;45.97;21.33;;;5.30;99.60;;;;;;4162363;28;20053;-64
2023/03/15 02:16:20;;;;;;;44.13;21.13;;;5.30;99.90;;;;;;4161463;28;20270;-63
2023/03/15 02:18:22;;;;;;;32.53;16.37;;;5.20;99.90;;;;;;4145870;28;20279;-70
2023/03/15 02:20:32;;;;;;;35.53;15.83;;;5.20;99.90;;;;;;4145429;28;20022;-72
2023/03/15 02:22:51;;;;;;;28.00;13.83;;;5.20;99.90;;;;;;4145930;28;20325;-64
2023/03/15 02:25:09;;;;;;;28.20;13.70;;;5.20;99.90;;;;;;4144666;28;20305;-63
2023/03/15 02:27:11;;;;;;;30.17;14.30;;;5.20;99.90;;;;;;4159163;28;20267;-63
2023/03/15 02:29:12;;;;;;;26.47;14.03;;;5.20;99.90;;;;;;4161147;28;20259;-63
2023/03/15 02:31:13;;;;;;;33.10;14.30;;;5.30;99.90;;;;;;4161933;28;20088;-63
2023/03/15 02:33:24;;;;;;;37.17;14.80;;;5.20;99.90;;;;;;4161479;28;20314;-63
2023/03/15 02:35:28;;;;;;;26.65;13.60;;;5.20;99.90;;;;;;4161941;28;20352;-75
2023/03/15 02:37:29;;;;;;;28.33;13.77;;;5.20;99.90;;;;;;4161283;28;20060;-65
2023/03/15 02:39:30;;;;;;;29.77;14.07;;;5.20;99.90;;;;;;4161684;28;20022;-64
2023/03/15 02:41:37;;;;;;;28.37;14.17;;;5.10;99.90;;;;;;4162428;28;20805;-62
2023/03/15 02:43:40;;;;;;;28.73;13.63;;;5.10;99.90;;;;;;4161015;28;20349;-63
2023/03/15 02:45:42;;;;;;;32.33;14.80;;;5.20;99.90;;;;;;4161984;28;20821;-62
2023/03/15 02:47:44;;;;;;;37.40;14.73;;;5.10;99.90;;;;;;4161032;28;20324;-61
2023/03/15 02:49:51;;;;;;;27.00;14.07;;;5.20;99.90;;;;;;4162153;28;20263;-66
2023/03/15 02:51:52;;;;;;;30.20;13.80;;;5.20;99.90;;;;;;4160872;28;20320;-62
2023/03/15 02:53:53;;;;;;;32.20;14.57;;;5.20;99.90;;;;;;4161445;28;20302;-63
2023/03/15 02:55:55;;;;;;;25.60;13.77;;;5.20;99.90;;;;;;4160548;28;20321;-63
2023/03/15 02:57:56;;;;;;;24.90;12.43;;;5.20;99.90;;;;;;4161528;28;20290;-70
2023/03/15 02:59:59;;;;;;;25.13;11.63;;;5.10;99.90;;;;;;4160835;28;20283;-67
2023/03/15 03:02:00;;;;;;;21.77;11.23;;;5.10;99.90;;;;;;4161408;28;20286;-63
2023/03/15 03:04:01;;;;;;;19.23;10.70;;;5.10;99.90;;;;;;4160771;28;20328;-69
2023/03/15 03:06:03;;;;;;;20.70;10.13;;;5.10;99.90;;;;;;4161816;28;20286;-64
2023/03/15 03:08:04;;;;;;;25.73;11.70;;;5.10;99.90;;;;;;4160712;28;20714;-63
2023/03/15 03:10:06;;;;;;;24.60;11.93;;;5.10;99.90;;;;;;4161388;28;20666;-64
2023/03/15 03:12:07;;;;;;;27.73;12.57;;;5.00;99.90;;;;;;4160467;28;20333;-63
2023/03/15 03:14:08;;;;;;;26.40;12.27;;;5.00;99.90;;;;;;4160576;28;20709;-63
2023/03/15 03:16:09;;;;;;;32.67;14.53;;;5.00;99.90;;;;;;4161250;28;20813;-63
2023/03/15 03:18:11;;;;;;;31.37;14.37;;;5.00;99.90;;;;;;4160676;28;20262;-64
2023/03/15 03:20:13;;;;;;;30.20;13.03;;;4.90;99.90;;;;;;4161365;28;20263;-67
2023/03/15 03:22:15;;;;;;;29.23;12.63;;;4.90;99.90;;;;;;4160645;28;20263;-63
2023/03/15 03:24:16;;;;;;;23.10;11.70;;;4.80;99.90;;;;;;4161426;28;20309;-64
2023/03/15 03:26:18;;;;;;;25.43;12.57;;;4.70;99.90;;;;;;4160638;28;20275;-65
2023/03/15 03:28:26;;;;;;;25.33;11.23;;;4.70;99.90;;;;;;4160375;28;20832;-64
2023/03/15 03:30:27;;;;;;;31.87;12.97;;;4.60;99.90;;;;;;4159046;28;20754;-63
2023/03/15 03:32:28;;;;;;;27.40;11.90;;;4.50;99.90;;;;;;4161642;28;20320;-64
2023/03/15 03:34:30;;;;;;;27.47;11.73;;;4.60;99.90;;;;;;4160242;28;20352;-66
2023/03/15 03:36:31;;;;;;;25.33;12.47;;;4.60;99.90;;;;;;4161498;28;20274;-64
2023/03/15 03:38:32;;;;;;;24.10;12.27;;;4.60;99.90;;;;;;4143575;28;20346;-62
2023/03/15 03:40:33;;;;;;;24.53;12.30;;;4.60;99.90;;;;;;4145268;28;20333;-64
2023/03/15 03:42:35;;;;;;;26.93;12.27;;;4.60;99.90;;;;;;4155152;28;20335;-63
2023/03/15 03:44:36;;;;;;;27.60;12.23;;;4.50;99.90;;;;;;4161224;28;20746;-63
2023/03/15 03:46:37;;;;;;;23.53;11.07;;;4.50;99.90;;;;;;4160807;28;20340;-64
2023/03/15 03:48:38;;;;;;;29.03;13.07;;;4.50;99.90;;;;;;4160652;28;20336;-67
2023/03/15 03:50:39;;;;;;;20.97;11.37;;;4.50;99.90;;;;;;4163726;28;20262;-63
2023/03/15 03:52:42;;;;;;;27.43;11.37;;;4.50;99.90;;;;;;4163539;28;20255;-63
2023/03/15 03:54:43;;;;;;;27.00;11.83;;;4.50;99.90;;;;;;4164700;28;20290;-63
2023/03/15 03:56:44;;;;;;;23.73;12.17;;;4.50;99.90;;;;;;4163163;28;20286;-63
2023/03/15 03:58:45;;;;;;;21.70;11.70;;;4.50;99.90;;;;;;4164614;28;20271;-67
2023/03/15 04:00:47;;;;;;;23.80;11.77;;;4.50;99.90;;;;;;4162961;28;20270;-64
2023/03/15 04:02:48;;;;;;;29.13;12.73;;;4.50;99.90;;;;;;4163701;28;20754;-66
2023/03/15 04:04:49;;;;;;;28.03;12.13;;;4.40;99.90;;;;;;4163305;28;20275;-66
2023/03/15 04:06:50;;;;;;;27.07;12.10;;;4.40;99.90;;;;;;4164601;28;20290;-64
2023/03/15 04:08:52;;;;;;;27.77;11.80;;;4.30;99.90;;;;;;4163441;28;20321;-63
2023/03/15 04:10:55;;;;;;;25.27;12.53;;;4.30;99.90;;;;;;4164539;28;20282;-64
2023/03/15 04:12:56;;;;;;;27.53;12.30;;;4.20;99.90;;;;;;4163363;28;20267;-63
2023/03/15 04:14:57;;;;;;;25.17;11.27;;;4.20;99.90;;;;;;4163947;28;20816;-63
2023/03/15 04:16:58;;;;;;;29.27;12.60;;;4.20;99.90;;;;;;4163629;28;20263;-64
2023/03/15 04:19:00;;;;;;;25.37;12.03;;;4.10;99.90;;;;;;4163265;28;20271;-63
2023/03/15 04:21:01;;;;;;;33.50;13.60;;;4.10;99.90;;;;;;4163597;28;20278;-64
2023/03/15 04:23:02;;;;;;;25.00;12.20;;;4.10;99.90;;;;;;4162970;28;20286;-64
2023/03/15 04:25:04;;;;;;;28.87;13.43;;;4.10;99.90;;;;;;4163462;28;20337;-64
2023/03/15 04:27:05;;;;;;;27.03;11.73;;;4.10;99.90;;;;;;4162733;28;20262;-63
2023/03/15 04:29:08;;;;;;;27.13;12.00;;;4.10;99.90;;;;;;4164100;28;20255;-63
2023/03/15 04:31:13;;;;;;;28.03;12.37;;;4.10;99.90;;;;;;4163078;28;20727;-67
2023/03/15 04:33:15;;;;;;;21.83;11.30;;;4.10;99.90;;;;;;4164185;28;20258;-66
2023/03/15 04:35:16;;;;;;;27.33;12.30;;;4.10;99.90;;;;;;4162200;28;20349;-63
2023/03/15 04:37:17;;;;;;;27.47;10.73;;;4.10;99.90;;;;;;4163468;28;20280;-64
2023/03/15 04:39:19;;;;;;;28.23;12.13;;;4.10;99.90;;;;;;4162589;28;20290;-63
2023/03/15 04:41:20;;;;;;;24.67;10.80;;;4.00;99.90;;;;;;4163199;28;20336;-63
2023/03/15 04:43:23;;;;;;;34.07;12.40;;;4.10;99.90;;;;;;4160783;28;20255;-64
2023/03/15 04:45:25;;;;;;;27.93;12.43;;;4.10;99.90;;;;;;4161824;28;20291;-63
2023/03/15 04:47:26;;;;;;;31.00;13.93;;;4.00;99.90;;;;;;4146610;28;20251;-63
2023/03/15 04:49:28;;;;;;;22.43;12.50;;;4.00;99.90;;;;;;4148282;28;20267;-64
2023/03/15 04:51:29;;;;;;;30.50;13.73;;;4.00;99.90;;;;;;4163087;28;20259;-64
2023/03/15 04:53:30;;;;;;;26.93;12.47;;;4.00;99.90;;;;;;4162455;28;20278;-64
2023/03/15 04:55:31;;;;;;;29.97;12.53;;;4.00;99.90;;;;;;4163338;28;20662;-64
2023/03/15 04:57:32;;;;;;;27.40;11.33;;;4.00;99.90;;;;;;4162049;28;20779;-64
2023/03/15 04:59:33;;;;;;;31.63;12.27;;;3.90;99.90;;;;;;4162798;28;20318;-63
2023/03/15 05:01:35;;;;;;;19.37;10.63;;;4.00;99.90;;;;;;4162185;28;20263;-63
2023/03/15 05:03:36;;;;;;;28.63;10.93;;;4.00;99.90;;;;;;4163166;28;20271;-63
2023/03/15 05:05:37;;;;;;;21.97;9.83;;;4.10;99.90;;;;;;4162180;28;20301;-64
2023/03/15 05:07:38;;;;;;;28.37;10.63;;;4.10;99.90;;;;;;4163382;28;20316;-64
2023/03/15 05:09:39;;;;;;;20.87;10.70;;;4.10;99.90;;;;;;4161805;28;20312;-72
2023/03/15 05:11:40;;;;;;;27.37;11.03;;;4.10;99.90;;;;;;4150226;28;20325;-63
2023/03/15 05:13:41;;;;;;;25.30;11.73;;;4.00;99.90;;;;;;4156113;28;20341;-66
2023/03/15 05:15:43;;;;;;;21.23;11.17;;;4.00;99.90;;;;;;4151353;28;20278;-63
2023/03/15 05:17:45;;;;;;;20.33;10.77;;;3.90;99.90;;;;;;4161826;28;20336;-71
2023/03/15 05:19:46;;;;;;;26.00;11.43;;;4.00;99.90;;;;;;4162551;28;20263;-63
2023/03/15 05:21:47;;;;;;;24.67;11.17;;;4.00;99.90;;;;;;4162307;28;20609;-62
2023/03/15 05:23:48;;;;;;;22.90;10.40;;;4.10;99.90;;;;;;4162092;28;20282;-69
2023/03/15 05:25:52;;;;;;;21.13;10.97;;;4.10;99.90;;;;;;4162606;28;20461;-62
2023/03/15 05:27:54;;;;;;;23.87;10.77;;;4.20;99.90;;;;;;4161265;28;20261;-63
2023/03/15 05:29:55;;;;;;;20.43;9.70;;;4.20;99.90;;;;;;4162959;28;20262;-62
2023/03/15 05:31:57;;;;;;;21.93;9.40;;;4.30;99.90;;;;;;4161429;28;20266;-63
2023/03/15 05:33:58;;;;;;;25.87;10.27;;;4.40;99.90;;;;;;4162453;28;20774;-63
2023/03/15 05:35:59;;;;;;;20.67;10.40;;;4.50;99.90;;;;;;4161237;28;20263;-63
2023/03/15 05:38:02;;;;;;;22.50;10.20;;;4.50;99.90;;;;;;4162606;28;20266;-62
2023/03/15 05:40:08;;;;;;;23.83;10.20;;;4.50;99.90;;;;;;4147367;28;20849;-70
2023/03/15 05:42:09;;;;;;;21.03;9.87;;;4.50;99.90;;;;;;4158917;28;20290;-63
2023/03/15 05:44:10;;;;;;;20.57;10.73;;;4.60;99.90;;;;;;4158387;28;20291;-63
2023/03/15 05:46:12;;;;;;;37.10;12.97;;;4.70;99.90;;;;;;4151254;28;20275;-64
2023/03/15 05:48:14;;;;;;;26.27;12.93;;;4.70;99.90;;;;;;4156334;28;20371;-62
2023/03/15 05:50:16;;;;;;;31.13;12.33;;;4.70;99.90;;;;;;4153345;28;20329;-64
2023/03/15 05:52:17;;;;;;;30.77;12.43;;;4.80;99.90;;;;;;4167819;28;20750;-63
2023/03/15 05:54:18;;;;;;;29.00;11.90;;;4.80;99.90;;;;;;4149635;28;20342;-63
2023/03/15 05:56:19;;;;;;;22.63;11.80;;;4.90;99.90;;;;;;4150285;28;20263;-62
2023/03/15 05:58:20;;;;;;;28.30;12.70;;;4.90;99.90;;;;;;4160879;28;20283;-64
2023/03/15 06:00:22;;;;;;;28.87;12.40;;;4.90;99.90;;;;;;4159993;28;20403;-63
2023/03/15 06:02:23;;;;;;;39.90;12.73;;;5.00;99.90;;;;;;4159723;28;20782;-63
2023/03/15 06:04:24;;;;;;;29.97;12.63;;;5.00;99.90;;;;;;4162489;28;20294;-63
2023/03/15 06:06:25;;;;;;;39.43;14.13;;;5.10;99.90;;;;;;4161114;28;20306;-63
2023/03/15 06:08:27;;;;;;;35.00;12.90;;;5.10;99.90;;;;;;4161286;28;20275;-63
2023/03/15 06:10:28;;;;;;;33.87;13.47;;;5.20;99.90;;;;;;4159615;28;20263;-74
2023/03/15 06:12:29;;;;;;;28.10;11.37;;;5.20;99.90;;;;;;4159215;28;20317;-63
2023/03/15 06:14:30;;;;;;;29.30;12.47;;;5.20;99.90;;;;;;4158033;28;20848;-71
2023/03/15 06:16:32;;;;;;;30.80;13.23;;;5.20;99.90;;;;;;4161379;28;20360;-63
2023/03/15 06:18:33;;;;;;;24.93;12.03;;;5.30;99.90;;;;;;4160533;28;20263;-66
2023/03/15 06:20:34;;;;;;;20.40;10.97;;;5.30;99.90;;;;;;4160867;28;20301;-69
2023/03/15 06:22:35;;;;;;;23.37;10.57;;;5.30;99.90;;;;;;4161172;28;20267;-62
2023/03/15 06:24:36;;;;;;;23.03;10.33;;;5.40;99.90;;;;;;4161459;28;20747;-63
2023/03/15 06:26:37;;;;;;;22.73;9.83;;;5.50;99.90;;;;;;4161350;28;20262;-63
2023/03/15 06:28:39;;;;;;;19.60;10.17;;;5.50;99.90;;;;;;4160776;28;20250;-63
2023/03/15 06:30:40;;;;;;;26.80;10.30;;;5.60;99.90;;;;;;4161402;28;20263;-62
2023/03/15 06:32:41;;;;;;;27.17;11.10;;;5.70;99.90;;;;;;4160762;28;20340;-65
2023/03/15 06:34:43;;;;;;;23.77;10.30;;;5.80;99.90;;;;;;4161572;28;20350;-65
2023/03/15 06:36:44;;;;;;;23.67;11.07;;;5.80;99.90;;;;;;4160526;28;20328;-63
2023/03/15 06:38:45;;;;;;;25.73;10.00;;;5.90;99.90;;;;;;4161507;28;20329;-63
2023/03/15 06:40:46;;;;;;;18.40;10.20;;;6.00;99.90;;;;;;4160481;28;20266;-70
2023/03/15 06:42:47;;;;;;;21.87;9.63;;;6.00;99.90;;;;;;4162037;28;20033;-63
2023/03/15 06:44:48;;;;;;;21.70;10.67;;;6.10;99.90;;;;;;4160630;28;20830;-64
2023/03/15 06:46:50;;;;;;;22.33;9.97;;;6.10;99.90;;;;;;4161506;28;20037;-63
2023/03/15 06:48:51;;;;;;;18.23;9.67;;;6.10;99.90;;;;;;4160378;28;20678;-63
2023/03/15 06:50:52;;;;;;;20.17;9.83;;;6.20;99.90;;;;;;4160930;28;20283;-63
2023/03/15 06:52:53;;;;;;;20.17;10.47;;;6.20;99.90;;;;;;4160992;28;20083;-67
2023/03/15 06:54:54;;;;;;;20.20;9.73;;;6.20;99.90;;;;;;4161227;28;20375;-74
2023/03/15 06:56:56;;;;;;;21.97;10.50;;;6.20;99.90;;;;;;4160684;28;20041;-65
2023/03/15 06:58:57;;;;;;;24.77;9.67;;;6.20;99.90;;;;;;4160479;28;20046;-64
2023/03/15 07:00:58;;;;;;;19.40;9.27;;;6.30;99.90;;;;;;4160891;28;20056;-63
2023/03/15 07:02:59;;;;;;;23.30;9.53;;;6.30;99.90;;;;;;4160244;28;20328;-63
2023/03/15 07:05:00;;;;;;;20.40;10.60;;;6.40;99.90;;;;;;4161547;28;20436;-62
2023/03/15 07:07:03;;;;;;;34.27;9.27;;;6.40;99.90;;;;;;4160501;28;20309;-65
2023/03/15 07:09:04;;;;;;;16.10;8.90;;;6.40;99.90;;;;;;4161563;28;20071;-66
2023/03/15 07:11:06;;;;;;;24.20;9.10;;;6.50;99.90;;;;;;4160470;28;20295;-64
2023/03/15 07:13:08;;;;;;;21.13;8.53;;;6.50;99.90;;;;;;4161891;28;20068;-63
2023/03/15 07:15:10;;;;;;;20.00;9.23;;;6.60;99.90;;;;;;4160478;28;20041;-62
2023/03/15 07:17:11;;;;;;;27.10;9.17;;;6.60;99.90;;;;;;4161621;28;20092;-62
2023/03/15 07:19:13;;;;;;;34.13;10.33;;;6.70;99.90;;;;;;4159944;28;20041;-63
2023/03/15 07:21:14;;;;;;;20.07;8.83;;;6.80;99.90;;;;;;4160866;28;20095;-63
2023/03/15 07:23:15;;;;;;;19.80;9.00;;;6.80;99.90;;;;;;4159993;28;20029;-67
2023/03/15 07:25:22;;;;;;;26.17;9.67;;;7.00;99.90;;;;;;4160380;28;20084;-63
2023/03/15 07:27:23;;;;;;;21.67;9.23;;;7.10;99.90;;;;;;4160015;28;20432;-63
2023/03/15 07:29:25;;;;;;;16.53;8.53;;;7.30;99.90;;;;;;4160072;28;20034;-69
2023/03/15 07:31:26;;;;;;;20.40;8.20;;;7.40;99.90;;;;;;4160261;28;20037;-62
2023/03/15 07:33:29;;;;;;;21.13;8.97;;;7.50;99.90;;;;;;4159981;28;20033;-63
2023/03/15 07:35:31;;;;;;;22.90;8.33;;;7.60;99.90;;;;;;4160953;28;20111;-64
2023/03/15 07:37:32;;;;;;;14.33;7.60;;;7.80;99.90;;;;;;4160282;28;20470;-62
2023/03/15 07:39:33;;;;;;;17.40;8.50;;;7.90;99.90;;;;;;4161211;28;20033;-74
2023/03/15 07:41:34;;;;;;;19.33;8.97;;;8.00;99.90;;;;;;4160475;28;20037;-68
2023/03/15 07:43:35;;;;;;;15.80;7.93;;;8.20;99.70;;;;;;4160217;28;20045;-68
2023/03/15 07:45:36;;;;;;;21.00;9.30;;;8.30;99.40;;;;;;4160015;28;20091;-63
2023/03/15 07:47:37;;;;;;;18.27;8.53;;;8.50;99.10;;;;;;4161101;28;20563;-62
2023/03/15 07:49:39;;;;;;;18.07;8.83;;;8.60;98.90;;;;;;4158191;28;20041;-63
2023/03/15 07:51:41;;;;;;;17.80;9.03;;;8.70;98.60;;;;;;4161268;28;20034;-62
2023/03/15 07:53:42;;;;;;;22.67;10.13;;;8.80;98.50;;;;;;4160015;28;20033;-66
2023/03/15 07:55:46;;;;;;;19.20;9.23;;;8.80;98.20;;;;;;4161020;28;20083;-62
2023/03/15 07:57:47;;;;;;;22.37;10.20;;;8.80;97.90;;;;;;4159611;28;20464;-62
2023/03/15 07:59:48;;;;;;;22.43;10.53;;;8.80;97.90;;;;;;4160540;28;20071;-62
2023/03/15 08:01:50;;;;;;;29.50;11.63;;;8.70;97.80;;;;;;4160491;28;20901;-66
2023/03/15 08:03:51;;;;;;;25.03;11.17;;;8.70;98.10;;;;;;4160423;28;20095;-63
2023/03/15 08:05:53;;;;;;;29.33;11.70;;;8.80;98.10;;;;;;4161093;28;20079;-63
2023/03/15 08:07:54;;;;;;;27.33;11.87;;;8.80;98.00;;;;;;4160032;28;20029;-63
2023/03/15 08:09:58;;;;;;;22.33;10.77;;;8.90;97.90;;;;;;4161144;28;20091;-63
2023/03/15 08:12:01;;;;;;;20.60;10.47;;;9.00;97.80;;;;;;4160330;28;20202;-65
2023/03/15 08:14:02;;;;;;;19.83;9.13;;;9.10;97.70;;;;;;4161269;28;20104;-73
2023/03/15 08:16:03;;;;;;;18.97;10.10;;;9.20;97.60;;;;;;4159874;28;20436;-64
2023/03/15 08:18:05;;;;;;;23.87;8.47;;;9.30;97.40;;;;;;4160992;28;20433;-66
2023/03/15 08:20:10;;;;;;;19.23;9.07;;;9.40;97.20;;;;;;4160009;28;20059;-63
2023/03/15 08:22:11;;;;;;;13.43;7.60;;;9.40;97.00;;;;;;4161292;28;20087;-62
2023/03/15 08:24:12;;;;;;;18.17;7.53;;;9.40;96.80;;;;;;4159806;28;20536;-64
2023/03/15 08:26:14;;;;;;;22.70;8.73;;;9.40;96.60;;;;;;4160882;28;20029;-74
2023/03/15 08:28:15;;;;;;;15.57;7.80;;;9.50;96.70;;;;;;4159690;28;20037;-72
2023/03/15 08:30:18;;;;;;;17.67;8.60;;;9.50;96.40;;;;;;4160668;28;20025;-68
2023/03/15 08:32:20;;;;;;;19.30;9.07;;;9.50;96.30;;;;;;4160418;28;20026;-73
2023/03/15 08:34:21;;;;;;;16.47;8.40;;;9.50;96.20;;;;;;4160252;28;20029;-63
2023/03/15 08:36:23;;;;;;;16.20;8.50;;;9.60;96.20;;;;;;4162222;28;20053;-72
2023/03/15 08:38:25;;;;;;;29.00;8.57;;;9.70;96.10;;;;;;4162765;28;20387;-66
2023/03/15 08:40:26;;;;;;;17.00;8.93;;;9.80;96.10;;;;;;4163484;28;20033;-63
2023/03/15 08:42:27;;;;;;;20.60;8.60;;;9.90;96.00;;;;;;4162610;28;20030;-63
2023/03/15 08:44:28;;;;;;;12.50;7.00;;;10.00;95.80;;;;;;4163787;28;20030;-69
2023/03/15 08:46:32;;;;;;;16.47;7.90;;;9.90;95.40;;;;;;4162344;28;20037;-64
2023/03/15 08:48:33;;;;;;;16.70;8.30;;;9.80;95.40;;;;;;4163356;28;20037;-64
2023/03/15 08:50:34;;;;;;;15.87;8.87;;;9.70;95.50;;;;;;4162509;28;20092;-63
2023/03/15 08:52:35;;;;;;;18.83;9.17;;;9.70;95.50;;;;;;4163601;28;20092;-70
2023/03/15 08:54:36;;;;;;;17.10;9.07;;;9.60;95.50;;;;;;4162353;28;20102;-67
2023/03/15 08:56:37;;;;;;;17.67;9.50;;;9.70;95.40;;;;;;4163338;28;20505;-70
2023/03/15 08:58:39;;;;;;;17.30;8.93;;;9.70;95.20;;;;;;4161884;28;20091;-63
2023/03/15 09:00:40;;;;;;;17.57;9.53;;;9.70;95.10;;;;;;4163336;28;20025;-63
2023/03/15 09:02:41;;;;;;;21.40;9.33;;;9.70;95.00;;;;;;4162746;28;20101;-64
2023/03/15 09:04:42;;;;;;;19.40;9.93;;;9.70;95.10;;;;;;4162655;28;20041;-68
2023/03/15 09:06:43;;;;;;;18.30;8.87;;;9.70;95.00;;;;;;4161620;28;20029;-64
2023/03/15 09:08:44;;;;;;;14.70;8.13;;;9.80;94.90;;;;;;4162029;28;20116;-73
2023/03/15 09:10:46;;;;;;;14.23;8.33;;;9.80;95.00;;;;;;4163292;28;20057;-63
2023/03/15 09:12:51;;;;;;;19.50;7.93;;;9.80;94.90;;;;;;4162309;28;20498;-63
2023/03/15 09:14:52;;;;;;;19.60;8.50;;;9.90;94.70;;;;;;4162906;28;20479;-64
2023/03/15 09:16:53;;;;;;;17.20;7.83;;;10.00;94.60;;;;;;4162070;28;20042;-63
2023/03/15 09:18:54;;;;;;;20.60;7.60;;;10.10;94.50;;;;;;4163065;28;20045;-64
2023/03/15 09:20:55;;;;;;;18.10;8.47;;;10.10;94.30;;;;;;4162071;28;20046;-63
2023/03/15 09:22:57;;;;;;;18.37;7.33;;;10.20;94.30;;;;;;4163252;28;20037;-64
2023/03/15 09:24:58;;;;;;;17.17;8.20;;;10.30;94.10;;;;;;4161990;28;20037;-64
2023/03/15 09:26:59;;;;;;;25.23;8.80;;;10.40;93.90;;;;;;4163234;28;20034;-64
2023/03/15 09:29:01;;;;;;;24.63;8.37;;;10.40;93.70;;;;;;4161690;28;20452;-62
2023/03/15 09:31:05;;;;;;;20.27;8.23;;;10.40;93.60;;;;;;4162608;28;20029;-75
2023/03/15 09:33:07;;;;;;;17.17;8.17;;;10.40;93.20;;;;;;4161914;28;20037;-63
2023/03/15 09:35:12;;;;;;;17.50;7.23;;;10.40;93.00;;;;;;4162600;28;20139;-63
2023/03/15 09:37:14;;;;;;;18.57;7.57;;;10.50;93.10;;;;;;4162225;28;20370;-63
2023/03/15 09:39:15;;;;;;;24.80;7.80;;;10.60;93.10;;;;;;4162549;28;20083;-63
2023/03/15 09:41:25;;;;;;;16.33;7.40;;;10.60;93.00;;;;;;4162034;28;20453;-64
2023/03/15 09:43:38;;;;;;;22.23;7.85;;;10.80;92.70;;;;;;4162533;28;20079;-64
2023/03/15 09:45:58;;;;;;;27.00;7.57;;;10.80;92.50;;;;;;4162225;28;20049;-65
2023/03/15 09:48:09;;;;;;;17.63;8.27;;;10.80;92.30;;;;;;4161022;28;20189;-75
2023/03/15 09:50:17;;;;;;;19.67;8.03;;;10.90;92.40;;;;;;4162026;28;20029;-63
2023/03/15 09:52:34;;;;;;;21.67;8.03;;;11.00;92.40;;;;;;4162431;28;20021;-64
2023/03/15 09:54:47;;;;;;;25.40;8.00;;;11.10;92.30;;;;;;4161538;28;20490;-63
2023/03/15 09:57:01;;;;;;;28.10;8.43;;;11.20;92.10;;;;;;4162174;28;20111;-63
2023/03/15 09:59:04;;;;;;;22.10;7.67;;;11.10;91.70;;;;;;4161352;28;20083;-62
2023/03/15 10:01:10;;;;;;;16.77;7.80;;;11.10;91.80;;;;;;4162198;28;20025;-64
2023/03/15 10:03:30;;;;;;;23.40;6.93;;;11.10;91.90;;;;;;4161590;28;20087;-64
2023/03/15 10:05:43;;;;;;;;;;;11.10;91.80;;;;;;4162545;28;20111;-64
2023/03/15 10:07:45;;;;;;;22.07;7.77;;;11.20;91.40;;;;;;4161418;28;20361;-68
2023/03/15 10:09:47;;;;;;;21.93;7.30;;;11.20;91.70;;;;;;4162011;28;20551;-63
2023/03/15 10:11:54;;;;;;;23.03;8.03;;;11.30;91.70;;;;;;4161546;28;20470;-63
2023/03/15 10:14:16;;;;;;;21.67;7.93;;;11.30;91.50;;;;;;4161920;28;20045;-63
2023/03/15 10:16:29;;;;;;;16.67;7.33;;;11.40;91.40;;;;;;4160942;28;20517;-63
2023/03/15 10:18:51;;;;;;;39.60;14.17;;;11.40;91.30;;;;;;4161937;28;20477;-79
2023/03/15 10:21:03;;;;;;;42.00;13.93;;;11.30;91.70;;;;;;4160715;28;20041;-67
2023/03/15 10:23:22;;;;;;;28.40;11.47;;;11.10;92.00;;;;;;4162013;28;20037;-67
2023/03/15 10:25:25;;;;;;;28.83;11.83;;;10.90;92.00;;;;;;4159578;28;20033;-64
2023/03/15 10:27:41;;;;;;;24.60;11.43;;;10.90;92.10;;;;;;4161987;28;20080;-65
2023/03/15 10:29:44;;;;;;;32.67;12.33;;;11.00;92.20;;;;;;4160947;28;20488;-63
2023/03/15 10:31:46;;;;;;;31.13;11.53;;;11.10;92.10;;;;;;4162055;28;20512;-63